Time;durP1;ratioP1;P1;durP2;ratioP2;P2;SDS_P1;SDS_P2;PMS_P1;PMS_P2;Temp;Humidity;BMP_temperature;BMP_pressure;BME280_temperature;BME280_humidity;BME280_pressure;Samples;Min_cycle;Max_cycle;Signal;HPM_P1;HPM_P2
2023/10/19 05:34:29;;;;;;;;;5.00;3.00;;;;;23.67;59.40;98692.66;5134425;27;45299;-58
2023/10/19 05:36:58;;;;;;;;;2.50;2.50;;;;;24.12;57.70;98688.41;5116969;27;45307;-58
2023/10/19 05:39:27;;;;;;;;;3.50;2.50;;;;;24.33;56.50;98679.19;5115624;27;45300;-58
2023/10/19 05:41:53;;;;;;;;;2.75;2.00;;;;;24.45;56.14;98641.91;5116140;27;45323;-58
2023/10/19 05:44:19;;;;;;;;;2.75;2.00;;;;;24.71;55.26;98673.09;5116650;27;46202;-58
2023/10/19 05:46:44;;;;;;;;;2.00;2.00;;;;;24.80;54.33;98667.22;5117112;27;45343;-59
2023/10/19 05:49:09;;;;;;;;;4.00;2.00;;;;;24.84;54.11;98682.16;5116913;27;45252;-59
2023/10/19 05:51:35;;;;;;;;;3.75;2.00;;;;;24.84;54.13;98667.59;5116894;27;45360;-59
2023/10/19 05:54:03;;;;;;;;;2.25;2.25;;;;;24.94;53.88;98680.91;5116070;27;53203;-58
2023/10/19 05:59:12;;;;;;;;;2.00;2.00;;;;;25.20;53.71;98683.63;5560050;22;45951;-59
2023/10/19 06:01:38;;;;;;;;;6.00;1.50;;;;;25.33;53.01;98674.53;5045751;28;45478;-58
2023/10/19 06:04:05;;;;;;;;;3.00;3.00;;;;;25.14;52.61;98670.78;5049115;28;46140;-59
2023/10/19 06:06:30;;;;;;;;;3.50;3.00;;;;;25.17;53.16;98662.97;5054959;28;45496;-60
2023/10/19 06:08:55;;;;;;;;;2.00;2.00;;;;;25.20;52.88;98661.69;5054508;28;50925;-59
2023/10/19 06:11:21;;;;;;;;;5.50;2.75;;;;;25.16;53.37;98646.72;5054164;28;61836;-58
2023/10/19 06:13:47;;;;;;;;;3.75;2.25;;;;;25.07;53.80;98637.06;5054474;28;45375;-58
2023/10/19 06:16:14;;;;;;;;;1.25;0.75;;;;;25.17;53.02;98631.97;5054485;28;45296;-59
2023/10/19 06:18:39;;;;;;;;;2.00;2.00;;;;;25.17;53.16;98626.47;5052919;28;45471;-58
2023/10/19 06:21:04;;;;;;;;;3.75;2.50;;;;;25.30;53.20;98631.91;5053669;28;52830;-56
2023/10/19 06:23:31;;;;;;;;;2.25;2.25;;;;;25.39;52.75;98638.84;5054949;28;45520;-55
2023/10/19 06:25:56;;;;;;;;;3.00;2.50;;;;;25.34;52.58;98630.44;5054644;28;45473;-57
2023/10/19 06:28:22;;;;;;;;;3.25;2.00;;;;;25.24;52.92;98625.41;5054404;28;45291;-55
2023/10/19 06:30:48;;;;;;;;;2.00;1.50;;;;;25.34;52.34;98643.31;5661562;22;45892;-55
2023/10/19 06:33:13;;;;;;;;;5.25;2.00;;;;;25.28;52.63;98650.47;5045964;28;47721;-56
2023/10/19 06:38:16;;;;;;;;;3.50;2.00;;;;;25.22;52.76;98635.75;5592767;22;46271;-56
2023/10/19 06:40:42;;;;;;;;;0.00;0.00;;;;;25.33;52.47;98652.59;5051347;28;56576;-56
2023/10/19 06:43:07;;;;;;;;;2.00;2.00;;;;;25.33;52.17;98652.59;5054168;28;45967;-57
2023/10/19 06:45:33;;;;;;;;;2.75;2.75;;;;;25.33;52.67;98645.22;5061388;28;45262;-56
2023/10/19 06:48:00;;;;;;;;;2.00;2.00;;;;;25.32;52.62;98646.25;5048329;28;45288;-59
2023/10/19 06:50:26;;;;;;;;;1.25;1.25;;;;;25.37;52.09;98637.38;5040987;28;45545;-59
2023/10/19 06:52:52;;;;;;;;;2.00;2.00;;;;;25.36;52.57;98633.78;5040820;28;46450;-59
2023/10/19 06:57:55;;;;;;;;;2.00;1.25;;;;;25.34;52.36;98635.94;5059944;22;46187;-58
2023/10/19 07:00:22;;;;;;;;;1.75;1.50;;;;;25.39;52.39;98638.84;5028910;28;45700;-59
2023/10/19 07:02:50;;;;;;;;;3.75;1.75;;;;;25.40;52.17;98636.94;5040833;28;46361;-60
2023/10/19 07:05:21;;;;;;;;;4.75;2.50;;;;;25.38;52.46;98628.09;5040476;28;45395;-59
2023/10/19 07:07:49;;;;;;;;;2.50;1.25;;;;;25.38;52.16;98630.81;5041164;28;45337;-60
2023/10/19 07:10:15;;;;;;;;;3.50;1.25;;;;;25.48;52.02;98625.72;5040615;28;45503;-59
2023/10/19 07:12:50;;;;;;;;;4.75;2.50;;;;;25.44;51.75;98618.97;5040509;28;45404;-59
2023/10/19 07:15:18;;;;;;;;;2.00;2.00;;;;;25.62;51.75;98624.63;5040527;28;45253;-59
2023/10/19 07:17:48;;;;;;;;;2.50;2.50;;;;;25.60;51.75;98618.53;5040982;28;45319;-59
2023/10/19 07:20:35;;;;;;;;;2.00;2.00;;;;;25.54;51.23;98617.47;5040740;28;45320;-59
2023/10/19 07:25:48;;;;;;;;;1.50;1.00;;;;;25.50;51.81;98609.91;5040501;28;45212;-59
2023/10/19 07:28:15;;;;;;;;;2.00;2.00;;;;;25.54;51.72;98619.38;5040416;28;45264;-60
2023/10/19 07:30:42;;;;;;;;;4.75;1.25;;;;;25.46;51.67;98612.22;5040347;28;45264;-60
2023/10/19 07:33:09;;;;;;;;;3.50;2.00;;;;;25.50;51.50;98605.25;5040393;28;46392;-59
2023/10/19 07:35:37;;;;;;;;;1.00;1.00;;;;;25.54;51.23;98602.91;5040259;28;45332;-60
2023/10/19 07:38:04;;;;;;;;;2.00;2.00;;;;;25.41;51.70;98597.50;5040607;28;45248;-60
2023/10/19 07:40:29;;;;;;;;;2.75;1.50;;;;;25.53;51.47;98596.56;5038880;28;45375;-59
2023/10/19 07:42:55;;;;;;;;;2.25;2.25;;;;;25.60;51.23;98586.44;5039684;28;46447;-59
2023/10/19 07:45:21;;;;;;;;;1.50;1.50;;;;;25.70;51.00;98587.84;5039709;28;45267;-59
2023/10/19 07:47:46;;;;;;;;;0.00;0.00;;;;;25.68;50.59;98593.59;5040057;28;45368;-60
2023/10/19 07:50:15;;;;;;;;;1.00;1.00;;;;;25.65;50.84;98588.53;5040381;28;45330;-61
2023/10/19 07:52:47;;;;;;;;;2.00;2.00;;;;;25.68;50.93;98587.25;5040236;28;46119;-60
2023/10/19 07:55:12;;;;;;;;;2.25;1.00;;;;;25.59;50.38;98586.69;5040208;28;45312;-60
2023/10/19 07:57:40;;;;;;;;;1.00;1.00;;;;;25.74;50.90;98589.97;5038701;28;45232;-59
2023/10/19 08:00:08;;;;;;;;;7.25;2.00;;;;;25.72;50.71;98585.75;5033129;28;46037;-59
2023/10/19 08:02:34;;;;;;;;;2.75;2.00;;;;;25.88;50.51;98598.94;5026400;28;46166;-61
2023/10/19 08:05:01;;;;;;;;;2.50;2.00;;;;;25.98;49.73;98591.91;5038546;28;45240;-59
2023/10/19 08:07:28;;;;;;;;;1.00;1.00;;;;;25.96;49.94;98580.31;5039997;28;45296;-59
2023/10/19 08:09:54;;;;;;;;;2.50;2.50;;;;;25.84;49.63;98598.56;5039952;28;46021;-59
2023/10/19 08:12:22;;;;;;;;;2.00;1.00;;;;;25.98;49.44;98586.44;5039259;28;45495;-59
2023/10/19 08:14:48;;;;;;;;;2.25;2.25;;;;;26.09;49.29;98590.38;5039901;28;45261;-59
2023/10/19 08:17:13;;;;;;;;;1.50;1.00;;;;;26.05;49.61;98578.13;5040178;28;45276;-59
2023/10/19 08:19:39;;;;;;;;;3.00;1.50;;;;;26.04;49.44;98572.88;5039832;28;45201;-59
2023/10/19 08:22:05;;;;;;;;;3.00;2.50;;;;;25.99;49.86;98588.13;5039756;28;46525;-60
2023/10/19 08:24:30;;;;;;;;;3.50;2.25;;;;;26.03;49.92;98587.69;5040100;28;45194;-60
2023/10/19 08:26:56;;;;;;;;;2.50;2.50;;;;;26.16;49.65;98574.69;5039348;28;45233;-59
2023/10/19 08:29:21;;;;;;;;;1.00;1.00;;;;;26.27;49.05;98575.91;5039646;28;45586;-60
2023/10/19 08:31:47;;;;;;;;;2.50;2.50;;;;;26.35;48.66;98570.97;5039525;28;46162;-59
2023/10/19 08:34:13;;;;;;;;;4.00;2.25;;;;;26.30;49.11;98579.03;5039605;28;45388;-60
2023/10/19 08:36:39;;;;;;;;;1.75;1.75;;;;;26.33;48.48;98575.84;5039483;28;45437;-60
2023/10/19 08:39:05;;;;;;;;;1.75;1.75;;;;;26.31;48.99;98563.38;5039544;28;45383;-59
2023/10/19 08:41:34;;;;;;;;;1.00;1.00;;;;;26.31;48.35;98564.22;5038816;28;45323;-59
2023/10/19 08:44:15;;;;;;;;;3.00;1.00;;;;;26.33;48.58;98561.28;5039252;28;45378;-58
2023/10/19 08:46:45;;;;;;;;;3.25;0.25;;;;;26.43;48.17;98572.59;5039567;28;45371;-59
2023/10/19 08:49:12;;;;;;;;;1.00;1.00;;;;;26.50;48.71;98576.13;5039325;28;45926;-59
2023/10/19 08:51:39;;;;;;;;;2.00;2.00;;;;;26.54;48.49;98563.59;5038981;28;46326;-60
2023/10/19 08:54:08;;;;;;;;;2.00;2.00;;;;;26.55;47.96;98583.69;5038957;28;45350;-60
2023/10/19 08:56:33;;;;;;;;;1.00;1.00;;;;;26.44;48.54;98573.44;5038642;28;45466;-60
2023/10/19 08:59:00;;;;;;;;;0.75;0.75;;;;;26.39;48.69;98565.84;5038541;28;59253;-59
2023/10/19 09:01:27;;;;;;;;;3.25;2.00;;;;;26.50;48.54;98573.38;5039025;28;45251;-58
2023/10/19 09:03:53;;;;;;;;;1.75;1.75;;;;;26.59;48.00;98572.03;5038952;28;45303;-59
2023/10/19 09:06:20;;;;;;;;;3.00;2.00;;;;;26.51;47.84;98565.97;5037953;28;45307;-59
2023/10/19 09:08:48;;;;;;;;;2.00;2.00;;;;;26.50;48.10;98556.88;5038992;28;45265;-58
2023/10/19 09:11:13;;;;;;;;;1.50;1.50;;;;;26.56;48.26;98563.38;5038598;28;46932;-60
2023/10/19 09:13:49;;;;;;;;;2.00;2.00;;;;;26.59;48.11;98555.53;5038906;28;45368;-59
2023/10/19 09:16:16;;;;;;;;;2.00;2.00;;;;;26.60;47.58;98572.88;5038659;28;45245;-59
2023/10/19 09:18:41;;;;;;;;;1.00;1.00;;;;;26.63;48.21;98551.25;5038774;28;45551;-59
2023/10/19 09:21:11;;;;;;;;;3.00;1.50;;;;;26.73;47.68;98561.72;5038659;28;46109;-59
2023/10/19 09:23:37;;;;;;;;;3.00;3.00;;;;;26.88;47.80;98555.88;5038836;28;45240;-59
2023/10/19 09:26:03;;;;;;;;;1.50;1.50;;;;;26.83;47.52;98544.72;5038556;28;45454;-60
2023/10/19 09:28:29;;;;;;;;;4.25;1.00;;;;;26.95;47.57;98553.94;5038849;28;46096;-59
2023/10/19 09:30:55;;;;;;;;;2.00;2.00;;;;;26.91;47.75;98536.19;5038571;28;45331;-60
2023/10/19 09:33:23;;;;;;;;;2.25;2.00;;;;;27.00;47.00;98537.56;5039104;28;45275;-59
2023/10/19 09:35:52;;;;;;;;;1.00;1.00;;;;;26.89;47.72;98528.13;5038714;28;45331;-59
2023/10/19 09:38:21;;;;;;;;;1.00;1.00;;;;;26.85;47.97;98529.69;5038593;28;45444;-59
2023/10/19 09:40:51;;;;;;;;;2.00;2.00;;;;;26.87;47.32;98518.47;5037984;28;45462;-59
2023/10/19 09:43:26;;;;;;;;;2.00;2.00;;;;;26.97;47.53;98513.28;5038513;28;45343;-60
2023/10/19 09:45:54;;;;;;;;;2.00;1.00;;;;;26.99;46.76;98502.88;5038828;28;45333;-59
2023/10/19 09:48:19;;;;;;;;;0.75;0.75;;;;;27.05;47.42;98513.00;5038641;28;45315;-59
2023/10/19 09:50:54;;;;;;;;;1.00;0.75;;;;;26.99;47.50;98508.38;5038904;28;45402;-60
2023/10/19 09:53:28;;;;;;;;;2.25;0.75;;;;;27.07;47.22;98497.06;5038350;28;45244;-59
2023/10/19 09:55:58;;;;;;;;;1.00;1.00;;;;;27.08;47.37;98510.59;5038238;28;45240;-59
2023/10/19 09:58:31;;;;;;;;;3.50;2.00;;;;;27.02;47.19;98514.28;5038363;28;45562;-59
2023/10/19 10:01:02;;;;;;;;;2.00;2.00;;;;;27.10;47.01;98524.13;5038426;28;46218;-59
2023/10/19 10:03:53;;;;;;;;;1.75;1.75;;;;;26.87;47.58;98510.22;5038176;28;45272;-59
2023/10/19 10:06:28;;;;;;;;;2.50;1.00;;;;;26.93;47.31;98512.06;5037128;28;45339;-60
2023/10/19 10:08:54;;;;;;;;;0.50;0.50;;;;;27.10;47.00;98513.13;5038987;28;45485;-59
2023/10/19 10:11:23;;;;;;;;;1.50;1.50;;;;;27.26;47.27;98515.25;5041229;28;45288;-59
2023/10/19 10:13:53;;;;;;;;;0.50;0.50;;;;;27.25;47.19;98526.47;5041627;28;45263;-59
2023/10/19 10:16:26;;;;;;;;;0.50;0.50;;;;;27.28;46.43;98517.78;5041638;28;45438;-59
2023/10/19 10:18:59;;;;;;;;;1.00;1.00;;;;;27.35;46.81;98515.75;5041404;28;45516;-59
2023/10/19 10:21:26;;;;;;;;;1.00;1.00;;;;;27.33;46.45;98504.97;5041737;28;46125;-59
2023/10/19 10:23:57;;;;;;;;;2.50;1.50;;;;;27.35;46.76;98502.84;5041192;28;45233;-60
2023/10/19 10:26:26;;;;;;;;;1.00;0.50;;;;;27.48;46.81;98502.66;5041089;28;45328;-59
2023/10/19 10:29:13;;;;;;;;;1.00;1.00;;;;;27.58;46.09;98501.28;5041184;28;45415;-59
2023/10/19 10:31:43;;;;;;;;;1.75;1.75;;;;;27.49;46.17;98498.81;5041306;28;46332;-60
2023/10/19 10:34:10;;;;;;;;;1.75;1.75;;;;;27.59;46.12;98498.31;5041474;28;45507;-59
2023/10/19 10:37:05;;;;;;;;;3.00;1.00;;;;;27.79;45.76;98495.25;5041392;28;45292;-59
2023/10/19 10:39:31;;;;;;;;;0.75;0.75;;;;;27.93;45.50;98490.38;5040755;28;45533;-60
2023/10/19 10:41:59;;;;;;;;;4.50;0.00;;;;;27.96;45.30;98485.25;5040701;28;46263;-60
2023/10/19 10:44:42;;;;;;;;;1.50;1.50;;;;;28.07;45.16;98467.06;5041251;28;45323;-59
2023/10/19 10:47:10;;;;;;;;;2.00;2.00;;;;;28.33;44.22;98465.78;5041306;28;45351;-59
2023/10/19 10:49:56;;;;;;;;;1.50;1.50;;;;;28.44;44.31;98475.94;5041193;28;45450;-59
2023/10/19 10:52:31;;;;;;;;;1.00;1.00;;;;;28.58;44.08;98471.88;5041101;28;46307;-59
2023/10/19 10:54:58;;;;;;;;;1.25;1.25;;;;;28.74;42.77;98457.34;5041288;28;45289;-60
2023/10/19 10:57:24;;;;;;;;;1.50;1.50;;;;;29.13;42.48;98454.88;5040781;28;45312;-60
2023/10/19 11:00:28;;;;;;;;;2.00;2.00;;;;;29.59;41.03;98451.09;5040722;28;45507;-60
2023/10/19 11:03:03;;;;;;;;;1.00;1.00;;;;;30.13;39.85;98432.13;4979156;28;46575;-60
2023/10/19 11:05:29;;;;;;;;;1.25;0.25;;;;;30.94;38.96;98425.03;5031931;28;45300;-60
2023/10/19 11:08:21;;;;;;;;;2.50;2.50;;;;;31.89;36.96;98430.81;5040801;28;45275;-60
2023/10/19 11:10:47;;;;;;;;;1.75;1.75;;;;;32.89;34.93;98433.72;5040647;28;45286;-60
2023/10/19 11:13:22;;;;;;;;;1.00;1.00;;;;;34.07;34.21;98437.34;5040414;28;46289;-59
2023/10/19 11:15:56;;;;;;;;;0.50;0.50;;;;;35.28;32.33;98429.88;5040690;28;45245;-59
2023/10/19 11:18:35;;;;;;;;;2.00;2.00;;;;;36.29;29.91;98422.75;5040985;28;45253;-60
2023/10/19 11:21:09;;;;;;;;;1.00;1.00;;;;;37.30;29.00;98421.63;5040524;28;45384;-61
2023/10/19 11:23:38;;;;;;;;;3.00;3.00;;;;;38.43;27.12;98427.97;5040563;28;45299;-58
2023/10/19 11:26:05;;;;;;;;;1.00;1.00;;;;;38.76;26.79;98430.72;5040653;28;45402;-60
2023/10/19 11:28:32;;;;;;;;;1.00;1.00;;;;;38.74;26.84;98416.19;5040683;28;45456;-59
2023/10/19 11:31:15;;;;;;;;;1.00;1.00;;;;;38.81;26.95;98420.22;5040105;28;45462;-59
2023/10/19 11:33:43;;;;;;;;;1.00;0.00;;;;;39.51;25.60;98425.50;5040370;28;46573;-59
2023/10/19 11:36:08;;;;;;;;;3.00;1.00;;;;;39.53;24.74;98419.59;5040000;28;45170;-59
2023/10/19 11:38:35;;;;;;;;;1.00;1.00;;;;;39.54;25.90;98419.28;5040401;28;45260;-59
2023/10/19 11:41:00;;;;;;;;;1.67;1.00;;;;;40.41;24.46;98401.13;5040014;28;45228;-59
2023/10/19 11:43:26;;;;;;;;;2.00;1.00;;;;;40.75;23.35;98398.50;5040242;28;46348;-59
2023/10/19 11:45:51;;;;;;;;;1.00;1.00;;;;;40.92;23.15;98394.13;5040068;28;55505;-59
2023/10/19 11:48:16;;;;;;;;;1.00;1.00;;;;;41.52;22.59;98395.09;5040478;28;45294;-59
2023/10/19 11:50:42;;;;;;;;;1.00;1.00;;;;;41.28;22.50;98397.53;5040540;28;45487;-59
2023/10/19 11:53:09;;;;;;;;;0.00;0.00;;;;;41.75;20.79;98392.16;5039623;28;58662;-60
2023/10/19 11:55:35;;;;;;;;;0.33;0.00;;;;;40.61;22.53;98377.28;5040043;28;45509;-61
2023/10/19 11:58:01;;;;;;;;;0.00;0.00;;;;;39.94;22.56;98377.38;5039849;28;45307;-59
2023/10/19 12:00:33;;;;;;;;;1.00;1.00;;;;;39.49;23.39;98384.91;5040158;28;45474;-59
2023/10/19 12:02:59;;;;;;;;;0.33;0.33;;;;;38.97;24.17;98373.16;5039851;28;47016;-59
2023/10/19 12:05:24;;;;;;;;;1.33;1.00;;;;;38.21;24.28;98374.59;5038805;28;45332;-59
2023/10/19 12:07:51;;;;;;;;;0.00;0.00;;;;;38.54;24.82;98364.19;5039595;28;45352;-60
2023/10/19 12:10:20;;;;;;;;;1.00;1.00;;;;;39.05;23.99;98364.00;5040008;28;45817;-59
2023/10/19 12:12:45;;;;;;;;;1.00;1.00;;;;;39.01;23.97;98360.19;5039501;28;46295;-59
2023/10/19 12:15:12;;;;;;;;;0.00;0.00;;;;;39.58;23.92;98368.97;5039962;28;45280;-59
2023/10/19 12:17:37;;;;;;;;;1.33;0.00;;;;;39.39;23.16;98379.56;5040042;28;45358;-60
2023/10/19 12:20:06;;;;;;;;;0.50;0.50;;;;;38.49;24.05;98370.72;5039904;28;45438;-60
2023/10/19 12:22:36;;;;;;;;;1.00;0.00;;;;;37.97;24.67;98363.53;5039838;28;45333;-60
2023/10/19 12:25:02;;;;;;;;;1.67;0.33;;;;;37.79;25.48;98368.03;5039901;28;45499;-61
2023/10/19 12:27:28;;;;;;;;;0.67;0.67;;;;;37.60;25.28;98366.44;5039370;28;45308;-60
2023/10/19 12:29:54;;;;;;;;;1.33;1.00;;;;;37.02;25.48;98361.06;5039719;28;46011;-59
2023/10/19 12:32:19;;;;;;;;;0.00;0.00;;;;;36.72;25.99;98353.91;5038980;28;45356;-59
2023/10/19 12:34:45;;;;;;;;;1.00;1.00;;;;;37.39;25.44;98344.34;5039669;28;45327;-60
2023/10/19 12:37:12;;;;;;;;;0.00;0.00;;;;;37.82;24.79;98344.22;5040100;28;45285;-59
2023/10/19 12:39:51;;;;;;;;;1.00;1.00;;;;;38.12;24.48;98324.13;5039667;28;45534;-59
2023/10/19 12:42:16;;;;;;;;;2.00;0.00;;;;;38.46;24.13;98320.09;5038968;28;47043;-58
2023/10/19 12:44:43;;;;;;;;;0.33;0.33;;;;;39.03;23.68;98321.47;5039399;28;50954;-58
2023/10/19 12:47:10;;;;;;;;;1.33;0.00;;;;;38.60;23.79;98338.59;5039701;28;45277;-58
2023/10/19 12:49:37;;;;;;;;;0.00;0.00;;;;;38.66;23.51;98330.09;5038897;28;45545;-59
2023/10/19 12:52:03;;;;;;;;;0.00;0.00;;;;;37.87;24.39;98344.97;5039000;28;45316;-60
2023/10/19 12:54:29;;;;;;;;;1.50;1.00;;;;;36.94;25.24;98325.41;5039375;28;45236;-59
2023/10/19 12:56:54;;;;;;;;;0.50;0.50;;;;;36.22;26.56;98311.50;5039010;28;45174;-59
2023/10/19 12:59:20;;;;;;;;;0.00;0.00;;;;;35.40;28.00;98309.69;5039150;28;45578;-60
2023/10/19 13:01:48;;;;;;;;;0.00;0.00;;;;;34.75;28.43;98320.09;5039211;28;46064;-59
2023/10/19 13:04:18;;;;;;;;;1.00;0.00;;;;;34.38;29.15;98309.38;5037926;28;45265;-60
2023/10/19 13:06:43;;;;;;;;;0.00;0.00;;;;;33.99;30.00;98295.28;5026407;28;45194;-59
2023/10/19 13:09:09;;;;;;;;;0.00;0.00;;;;;33.96;30.29;98290.28;5039161;28;45294;-59
2023/10/19 13:11:34;;;;;;;;;1.25;1.25;;;;;33.75;30.49;98293.09;5038684;28;45252;-60
2023/10/19 13:14:00;;;;;;;;;1.00;1.00;;;;;33.56;31.31;98280.03;5039253;28;45270;-59
2023/10/19 13:16:27;;;;;;;;;1.00;1.00;;;;;33.35;31.55;98271.69;5039330;28;45243;-59
2023/10/19 13:18:53;;;;;;;;;0.00;0.00;;;;;33.11;31.71;98273.31;5039012;28;45961;-59
2023/10/19 13:21:22;;;;;;;;;1.00;1.00;;;;;32.87;31.79;98244.41;5039022;28;46374;-59
2023/10/19 13:23:48;;;;;;;;;0.75;0.75;;;;;32.78;31.50;98240.50;5038974;28;45289;-60
2023/10/19 13:26:17;;;;;;;;;1.00;1.00;;;;;33.11;31.67;98241.94;5038832;28;45353;-59
2023/10/19 13:28:43;;;;;;;;;1.00;1.00;;;;;33.59;31.17;98243.34;5038846;28;45236;-60
2023/10/19 13:31:13;;;;;;;;;2.00;0.75;;;;;34.46;29.68;98244.78;5038823;28;46228;-60
2023/10/19 13:33:40;;;;;;;;;0.50;0.00;;;;;35.38;28.77;98233.94;5038589;28;45478;-59
2023/10/19 13:36:05;;;;;;;;;1.25;1.25;;;;;36.25;27.75;98243.09;5039019;28;45244;-60
2023/10/19 13:38:31;;;;;;;;;0.00;0.00;;;;;36.56;27.03;98244.38;5037326;28;45517;-59
2023/10/19 13:40:56;;;;;;;;;0.00;0.00;;;;;36.41;26.86;98230.59;5038482;28;45240;-58
2023/10/19 13:43:22;;;;;;;;;2.50;1.00;;;;;36.06;27.10;98231.88;5038397;28;51760;-59
2023/10/19 13:45:48;;;;;;;;;2.00;1.00;;;;;35.72;27.42;98219.97;5042393;28;45418;-59
2023/10/19 13:48:14;;;;;;;;;3.33;1.00;;;;;35.47;27.87;98216.28;5041662;28;45434;-60
2023/10/19 13:50:48;;;;;;;;;0.25;0.25;;;;;35.38;28.00;98212.47;5042311;28;46293;-60
2023/10/19 13:53:17;;;;;;;;;0.75;0.75;;;;;35.18;28.01;98201.47;5042115;28;45279;-60
2023/10/19 13:55:42;;;;;;;;;1.00;1.00;;;;;34.86;28.56;98204.78;5041565;28;45523;-59
2023/10/19 13:58:08;;;;;;;;;2.00;2.00;;;;;34.57;29.01;98206.63;5041261;28;45256;-60
2023/10/19 14:03:01;;;;;;;;;1.75;1.00;;;;;34.17;29.17;98208.47;5041940;28;45228;-60
2023/10/19 14:05:29;;;;;;;;;2.00;0.00;;;;;33.98;29.31;98204.63;5040692;28;45357;-59
2023/10/19 14:07:54;;;;;;;;;1.00;1.00;;;;;33.94;29.67;98204.34;5041433;28;45341;-60
2023/10/19 14:10:21;;;;;;;;;0.50;0.50;;;;;33.91;29.73;98204.94;5041067;28;61841;-60
2023/10/19 14:12:47;;;;;;;;;1.00;1.00;;;;;33.81;30.16;98199.41;5041791;28;45363;-60
2023/10/19 14:15:18;;;;;;;;;1.00;1.00;;;;;33.77;30.23;98195.56;5042014;28;45490;-59
2023/10/19 14:17:45;;;;;;;;;1.00;1.00;;;;;33.82;30.00;98189.97;5041547;28;46254;-59
2023/10/19 14:20:14;;;;;;;;;1.00;1.00;;;;;33.68;30.33;98183.31;5041528;28;46342;-59
2023/10/19 14:22:45;;;;;;;;;2.75;2.75;;;;;33.75;30.33;98178.31;5041530;28;45256;-60
2023/10/19 14:25:12;;;;;;;;;2.00;2.00;;;;;33.55;30.44;98159.72;5041652;28;45276;-59
2023/10/19 14:27:42;;;;;;;;;2.50;2.25;;;;;33.23;30.66;98171.16;5041049;28;45227;-59
2023/10/19 14:30:11;;;;;;;;;3.00;3.00;;;;;33.00;31.01;98158.66;5041295;28;46196;-59
2023/10/19 14:32:38;;;;;;;;;2.50;2.50;;;;;32.98;31.34;98162.81;5041513;28;45334;-59
2023/10/19 14:35:05;;;;;;;;;1.75;1.75;;;;;32.68;31.34;98144.16;5040305;28;45236;-59
2023/10/19 14:37:31;;;;;;;;;0.75;0.75;;;;;32.53;31.73;98145.00;5041529;28;45435;-59
2023/10/19 14:39:58;;;;;;;;;2.75;1.00;;;;;32.44;32.28;98137.47;5041263;28;45228;-58
2023/10/19 14:42:24;;;;;;;;;0.75;0.75;;;;;32.27;32.23;98130.25;5040602;28;45285;-59
2023/10/19 14:44:49;;;;;;;;;0.75;0.75;;;;;32.16;32.64;98127.72;5041495;28;45359;-58
2023/10/19 14:47:14;;;;;;;;;0.75;0.75;;;;;32.03;32.48;98117.13;5041155;28;54753;-60
2023/10/19 14:49:40;;;;;;;;;1.00;0.75;;;;;31.97;32.55;98113.50;5040288;28;62709;-59
2023/10/19 14:52:05;;;;;;;;;0.25;0.25;;;;;32.02;32.42;98112.69;5040869;28;55001;-60
2023/10/19 14:54:30;;;;;;;;;3.00;1.75;;;;;31.94;32.67;98120.41;5040838;28;45458;-59
2023/10/19 14:56:57;;;;;;;;;2.00;2.00;;;;;31.90;33.18;98115.72;5040332;28;55287;-59
2023/10/19 14:59:22;;;;;;;;;0.50;0.50;;;;;31.83;32.86;98118.72;5040835;28;45372;-59
2023/10/19 15:01:47;;;;;;;;;1.00;1.00;;;;;31.83;33.29;98115.09;5041278;28;45359;-59
2023/10/19 15:04:13;;;;;;;;;0.00;0.00;;;;;31.79;33.19;98103.75;5039434;28;48289;-59
2023/10/19 15:06:38;;;;;;;;;3.00;2.25;;;;;31.77;32.82;98086.56;5027812;28;45624;-59
2023/10/19 15:09:03;;;;;;;;;0.00;0.00;;;;;31.69;33.41;98091.78;5040629;28;55481;-61
2023/10/19 15:11:29;;;;;;;;;1.75;0.75;;;;;31.72;33.11;98094.03;5040497;28;45241;-59
2023/10/19 15:13:54;;;;;;;;;1.00;1.00;;;;;31.80;33.39;98099.03;5040862;28;45205;-59
2023/10/19 15:16:20;;;;;;;;;0.50;0.50;;;;;31.68;33.18;98104.81;5040786;28;50378;-58
2023/10/19 15:18:45;;;;;;;;;0.00;0.00;;;;;31.71;32.73;98117.28;5039959;28;47115;-58
2023/10/19 15:21:13;;;;;;;;;0.75;0.75;;;;;31.68;33.70;98103.97;5040510;28;45230;-59
2023/10/19 15:23:40;;;;;;;;;0.50;0.50;;;;;31.46;33.28;98110.50;5040636;28;45268;-59
2023/10/19 15:26:06;;;;;;;;;1.25;1.25;;;;;31.62;33.59;98091.22;5040349;28;46110;-59
2023/10/19 15:28:33;;;;;;;;;1.00;1.00;;;;;31.62;33.28;98086.50;5040336;28;47036;-59
2023/10/19 15:30:59;;;;;;;;;0.00;0.00;;;;;31.63;33.26;98088.16;5040538;28;45276;-59
2023/10/19 15:33:28;;;;;;;;;1.00;1.00;;;;;31.52;33.01;98081.72;5040530;28;45389;-58
2023/10/19 15:35:55;;;;;;;;;0.75;0.75;;;;;31.41;32.66;98090.22;5040511;28;45353;-60
2023/10/19 15:38:21;;;;;;;;;1.00;1.00;;;;;31.29;33.14;98087.69;5040245;28;46537;-59
2023/10/19 15:40:49;;;;;;;;;0.50;0.50;;;;;31.22;32.72;98075.19;5039833;28;45357;-59
2023/10/19 15:43:14;;;;;;;;;1.25;1.25;;;;;30.96;33.50;98038.19;5038513;28;45582;-59
2023/10/19 15:45:41;;;;;;;;;1.50;0.50;;;;;30.93;32.93;98044.25;5037833;28;45577;-59
2023/10/19 15:48:11;;;;;;;;;0.00;0.00;;;;;30.99;33.69;98062.56;5037419;28;46179;-59
2023/10/19 15:50:38;;;;;;;;;0.75;0.75;;;;;30.98;33.18;98067.25;5037438;28;45519;-59
2023/10/19 15:53:04;;;;;;;;;1.00;1.00;;;;;30.82;33.58;98060.78;5037718;28;45513;-59
2023/10/19 15:55:30;;;;;;;;;1.00;1.00;;;;;30.79;33.87;98061.31;5037538;28;46007;-58
2023/10/19 15:57:55;;;;;;;;;0.00;0.00;;;;;30.73;34.04;98042.19;5037280;28;46108;-60
2023/10/19 16:00:22;;;;;;;;;0.50;0.50;;;;;30.59;34.33;98032.69;5038827;28;45371;-60
2023/10/19 16:02:48;;;;;;;;;0.25;0.25;;;;;30.48;35.02;98048.31;5039941;28;45231;-59
2023/10/19 16:05:15;;;;;;;;;1.25;1.25;;;;;30.48;34.57;98038.09;5038440;28;45524;-60
2023/10/19 16:07:41;;;;;;;;;1.00;1.00;;;;;30.55;34.40;98046.19;5038401;28;46568;-60
2023/10/19 16:10:12;;;;;;;;;1.50;1.50;;;;;30.46;35.43;98032.00;5039498;28;45418;-60
2023/10/19 16:12:42;;;;;;;;;1.75;1.75;;;;;30.55;35.50;98045.34;5039404;28;45292;-60
2023/10/19 16:15:08;;;;;;;;;1.00;1.00;;;;;30.52;35.36;98029.31;5039605;28;45336;-60
2023/10/19 16:17:35;;;;;;;;;2.00;2.00;;;;;30.55;36.07;98024.06;5039454;28;45938;-61
2023/10/19 16:20:01;;;;;;;;;2.50;2.50;;;;;30.56;36.06;98017.44;5039698;28;45431;-61
2023/10/19 16:22:26;;;;;;;;;1.00;1.00;;;;;30.57;35.89;98026.56;5039591;28;45262;-59
2023/10/19 16:24:51;;;;;;;;;1.50;1.50;;;;;30.50;36.04;98009.34;5039863;28;45240;-59
2023/10/19 16:27:17;;;;;;;;;0.75;0.75;;;;;30.50;36.65;98009.34;5038939;28;54594;-59
2023/10/19 16:29:42;;;;;;;;;1.75;1.75;;;;;30.52;36.94;98012.72;5039540;28;45241;-60
2023/10/19 16:32:09;;;;;;;;;6.50;6.50;;;;;30.43;37.03;98013.19;5038701;28;51630;-60
2023/10/19 16:34:35;;;;;;;;;1.75;1.25;;;;;30.52;36.62;98029.31;5035698;28;45438;-61
2023/10/19 16:37:00;;;;;;;;;2.50;1.00;;;;;30.38;37.23;98034.41;5037377;28;45817;-62
2023/10/19 16:39:26;;;;;;;;;1.25;1.25;;;;;30.34;37.36;98058.16;5038849;28;45374;-60
2023/10/19 16:41:52;;;;;;;;;1.75;1.75;;;;;30.22;37.51;98054.72;5039031;28;45398;-60
2023/10/19 16:44:18;;;;;;;;;1.25;1.25;;;;;30.11;38.34;98050.22;5039133;28;45273;-59
2023/10/19 16:46:44;;;;;;;;;0.50;0.50;;;;;29.91;38.13;98032.28;5039002;28;46541;-59
2023/10/19 16:49:09;;;;;;;;;0.75;0.75;;;;;29.97;37.79;98035.97;5039088;28;45212;-61
2023/10/19 16:51:42;;;;;;;;;1.00;1.00;;;;;29.89;38.48;98019.81;5039251;28;45221;-59
2023/10/19 16:54:11;;;;;;;;;0.50;0.50;;;;;29.92;38.52;98039.50;5039413;28;45265;-60
2023/10/19 16:56:39;;;;;;;;;1.00;1.00;;;;;29.90;38.74;98019.56;5038287;28;45352;-60
2023/10/19 16:59:06;;;;;;;;;4.00;2.00;;;;;29.92;38.62;98020.16;5039023;28;45277;-59
2023/10/19 17:01:31;;;;;;;;;1.00;1.00;;;;;29.90;38.15;98014.03;5038763;28;45352;-61
2023/10/19 17:03:57;;;;;;;;;2.50;2.00;;;;;29.82;38.67;98002.63;5038765;28;45300;-60
2023/10/19 17:06:23;;;;;;;;;2.00;2.00;;;;;29.75;38.84;98008.38;5037582;28;46486;-60
2023/10/19 17:08:49;;;;;;;;;0.75;0.75;;;;;29.72;38.61;98015.25;5039316;28;45658;-59
2023/10/19 17:11:15;;;;;;;;;3.00;3.00;;;;;29.66;38.35;98004.41;5038744;28;45275;-59
2023/10/19 17:13:41;;;;;;;;;2.25;1.75;;;;;29.76;38.91;98010.03;5038849;28;45550;-59
2023/10/19 17:16:06;;;;;;;;;4.00;2.25;;;;;29.62;39.32;98011.53;5038634;28;45970;-61
2023/10/19 17:18:33;;;;;;;;;2.75;1.75;;;;;29.58;38.82;98007.63;5038756;28;45365;-60
2023/10/19 17:21:01;;;;;;;;;1.75;1.75;;;;;29.59;39.49;97987.22;5038371;28;45442;-60
2023/10/19 17:23:26;;;;;;;;;1.75;1.75;;;;;29.66;38.91;97988.66;5038699;28;45303;-60